Time;durP1;ratioP1;P1;durP2;ratioP2;P2;SDS_P1;SDS_P2;PMS_P1;PMS_P2;Temp;Humidity;BMP_temperature;BMP_pressure;BME280_temperature;BME280_humidity;BME280_pressure;Samples;Min_cycle;Max_cycle;Signal;HPM_P1;HPM_P2
2023/06/24 00:02:25;;;;;;;6.00;4.15;;;21.50;51.50;;;;;;4906144;29;20370;-87
2023/06/24 00:04:54;;;;;;;5.40;4.20;;;21.50;51.60;;;;;;4900767;29;20079;-87
2023/06/24 00:07:22;;;;;;;5.85;4.60;;;21.50;51.70;;;;;;4899375;29;20143;-87
2023/06/24 00:09:49;;;;;;;4.97;4.10;;;21.50;51.70;;;;;;4903092;29;20060;-86
2023/06/24 00:12:18;;;;;;;6.32;4.25;;;21.40;51.70;;;;;;4899660;29;20078;-87
2023/06/24 00:14:46;;;;;;;4.93;4.25;;;21.40;51.70;;;;;;4903910;29;20546;-86
2023/06/24 00:17:16;;;;;;;5.78;4.15;;;21.40;51.70;;;;;;4906934;29;20060;-86
2023/06/24 00:19:44;;;;;;;6.32;4.65;;;21.40;51.80;;;;;;4907692;29;20405;-86
2023/06/24 00:22:13;;;;;;;5.40;4.40;;;21.40;51.80;;;;;;4907493;29;20055;-87
2023/06/24 00:24:42;;;;;;;7.95;5.00;;;21.30;51.90;;;;;;4909677;29;20060;-86
2023/06/24 00:27:09;;;;;;;6.22;4.70;;;21.30;51.90;;;;;;4902325;29;20523;-87
2023/06/24 00:29:37;;;;;;;5.57;4.55;;;21.30;52.00;;;;;;4890416;29;20420;-86
2023/06/24 00:32:05;;;;;;;6.65;5.22;;;21.30;52.00;;;;;;4906434;29;20055;-86
2023/06/24 00:34:32;;;;;;;5.28;4.22;;;21.30;52.10;;;;;;4906531;29;20608;-86
2023/06/24 00:36:59;;;;;;;6.63;5.03;;;21.30;52.10;;;;;;4906942;29;20072;-86
2023/06/24 00:39:28;;;;;;;6.32;4.57;;;21.30;52.20;;;;;;4906861;29;20420;-86
2023/06/24 00:41:55;;;;;;;6.75;4.85;;;21.20;52.10;;;;;;4909722;29;20056;-87
2023/06/24 00:44:22;;;;;;;7.88;4.72;;;21.20;52.20;;;;;;4908897;29;20060;-87
2023/06/24 00:46:50;;;;;;;5.97;4.82;;;21.10;52.20;;;;;;4908362;29;20052;-87
2023/06/24 00:49:17;;;;;;;5.78;4.50;;;21.10;52.30;;;;;;4909226;29;20400;-87
2023/06/24 00:51:50;;;;;;;8.13;5.28;;;21.10;52.40;;;;;;4902173;29;20063;-87
2023/06/24 00:54:17;;;;;;;5.25;4.43;;;21.10;52.40;;;;;;4908264;29;20056;-87
2023/06/24 00:56:47;;;;;;;6.97;5.25;;;21.10;52.40;;;;;;4906038;29;20447;-87
2023/06/24 00:59:17;;;;;;;5.25;4.40;;;21.00;52.50;;;;;;4907525;29;20051;-87
2023/06/24 01:01:45;;;;;;;6.18;4.90;;;21.10;52.60;;;;;;4913674;23;20067;-63
2023/06/24 01:04:12;;;;;;;6.35;4.88;;;21.00;52.60;;;;;;4905776;29;20088;-62
2023/06/24 01:06:43;;;;;;;5.78;4.75;;;21.00;52.60;;;;;;4904716;29;20067;-63
2023/06/24 01:09:11;;;;;;;7.07;5.55;;;20.90;52.60;;;;;;4908605;29;20060;-61
2023/06/24 01:11:38;;;;;;;6.40;5.00;;;20.90;52.60;;;;;;4905178;29;20064;-63
2023/06/24 01:14:07;;;;;;;6.03;4.75;;;20.90;52.70;;;;;;4908041;29;20051;-63
2023/06/24 01:16:40;;;;;;;7.35;4.85;;;20.90;52.80;;;;;;4909100;29;20487;-62
2023/06/24 01:19:30;;;;;;;7.00;4.88;;;20.90;52.90;;;;;;4907783;29;20497;-63
2023/06/24 01:22:11;;;;;;;5.82;5.22;;;20.80;52.90;;;;;;4907488;29;20504;-62
2023/06/24 01:24:56;;;;;;;6.25;5.10;;;20.80;52.90;;;;;;4910127;29;20071;-63
2023/06/24 01:27:41;;;;;;;8.25;5.25;;;20.80;53.00;;;;;;4896891;29;20522;-62
2023/06/24 01:30:37;;;;;;;10.50;5.32;;;20.80;53.10;;;;;;4904230;29;20158;-61
2023/06/24 01:33:09;;;;;;;7.78;5.47;;;20.70;53.10;;;;;;4902550;29;20060;-62
2023/06/24 01:35:39;;;;;;;7.65;5.20;;;20.70;53.10;;;;;;4903104;29;20055;-63
2023/06/24 01:38:11;;;;;;;7.07;5.32;;;20.70;53.10;;;;;;4898931;29;20064;-62
2023/06/24 01:40:42;;;;;;;8.20;5.32;;;20.70;53.20;;;;;;4903542;29;20582;-62
2023/06/24 01:43:11;;;;;;;6.95;5.93;;;20.70;53.20;;;;;;4901770;29;20063;-61
2023/06/24 01:45:42;;;;;;;5.47;4.53;;;20.60;53.20;;;;;;4904526;29;20515;-61
2023/06/24 01:48:14;;;;;;;7.18;5.07;;;20.60;53.30;;;;;;4904581;29;20056;-62
2023/06/24 01:50:46;;;;;;;11.00;5.43;;;20.60;53.90;;;;;;4904564;29;20071;-62
2023/06/24 01:53:15;;;;;;;8.10;5.30;;;20.60;53.50;;;;;;4903694;29;20052;-63
2023/06/24 01:55:43;;;;;;;8.18;5.15;;;20.60;53.50;;;;;;4906555;29;20442;-64
2023/06/24 01:58:12;;;;;;;7.63;6.10;;;20.60;53.50;;;;;;4904743;29;20056;-63
2023/06/24 02:00:41;;;;;;;6.18;4.95;;;20.50;53.50;;;;;;4907766;29;20059;-62
2023/06/24 02:03:10;;;;;;;7.38;5.93;;;20.50;53.60;;;;;;4887541;29;20059;-62
2023/06/24 02:05:40;;;;;;;8.55;5.30;;;20.50;53.60;;;;;;4901971;29;20063;-65
2023/06/24 02:08:10;;;;;;;6.40;4.97;;;20.50;53.70;;;;;;4902256;29;20059;-63
2023/06/24 02:10:39;;;;;;;7.55;5.55;;;20.50;53.80;;;;;;4900761;29;20497;-63
2023/06/24 02:13:08;;;;;;;10.18;5.97;;;20.40;53.80;;;;;;4901542;29;20048;-64
2023/06/24 02:15:38;;;;;;;7.55;5.45;;;20.40;53.80;;;;;;4901660;29;20067;-64
2023/06/24 02:18:09;;;;;;;6.53;5.20;;;20.40;53.90;;;;;;4898844;29;20056;-64
2023/06/24 02:20:39;;;;;;;6.95;5.55;;;20.40;53.90;;;;;;4900735;29;20056;-64
2023/06/24 02:23:09;;;;;;;8.38;5.63;;;20.40;53.90;;;;;;4899835;29;20060;-64
2023/06/24 02:25:39;;;;;;;7.90;5.10;;;20.30;53.90;;;;;;4900859;29;20071;-64
2023/06/24 02:28:07;;;;;;;6.78;5.70;;;20.30;54.00;;;;;;4902490;29;20059;-64
2023/06/24 02:30:36;;;;;;;6.65;5.22;;;20.30;54.10;;;;;;4901122;29;20606;-64
2023/06/24 02:33:04;;;;;;;7.40;5.70;;;20.30;54.10;;;;;;4902673;29;20068;-64
2023/06/24 02:35:31;;;;;;;7.53;5.80;;;20.30;54.20;;;;;;4901434;29;20056;-64
2023/06/24 02:37:59;;;;;;;8.15;6.13;;;20.30;54.20;;;;;;4899559;29;20071;-64
2023/06/24 02:40:27;;;;;;;9.25;5.90;;;20.20;54.30;;;;;;4900916;29;20056;-64
2023/06/24 02:42:54;;;;;;;8.07;5.70;;;20.20;54.30;;;;;;4901266;29;20055;-64
2023/06/24 02:45:22;;;;;;;9.30;6.35;;;20.20;54.30;;;;;;4903013;29;20056;-64
2023/06/24 02:47:54;;;;;;;8.90;6.25;;;20.20;54.40;;;;;;4900585;29;20052;-64
2023/06/24 02:50:23;;;;;;;8.95;5.72;;;20.20;54.40;;;;;;4900320;29;20048;-64
2023/06/24 02:52:52;;;;;;;7.05;5.80;;;20.10;54.40;;;;;;4902074;29;20051;-64
2023/06/24 02:55:21;;;;;;;6.65;5.18;;;20.10;54.40;;;;;;4901876;29;21287;-64
2023/06/24 02:57:50;;;;;;;8.55;6.63;;;20.10;54.50;;;;;;4902839;29;20052;-64
2023/06/24 03:00:18;;;;;;;6.93;5.97;;;20.10;54.50;;;;;;4900330;29;20044;-65
2023/06/24 03:02:46;;;;;;;8.23;5.95;;;20.10;54.60;;;;;;4900470;29;20059;-64
2023/06/24 03:05:18;;;;;;;11.23;5.95;;;20.00;54.60;;;;;;4898588;29;20055;-64
2023/06/24 03:07:46;;;;;;;7.35;5.15;;;20.00;54.70;;;;;;4900161;29;20056;-64
2023/06/24 03:10:15;;;;;;;7.60;5.93;;;20.00;54.70;;;;;;4900458;29;20123;-64
2023/06/24 03:12:44;;;;;;;8.35;5.90;;;20.00;54.70;;;;;;4899796;29;20063;-64
2023/06/24 03:15:11;;;;;;;9.10;6.07;;;20.00;54.80;;;;;;4899734;29;20056;-65
2023/06/24 03:17:38;;;;;;;8.43;6.00;;;20.00;54.80;;;;;;4902160;29;20063;-65
2023/06/24 03:20:07;;;;;;;7.35;5.45;;;20.00;54.80;;;;;;4902372;29;20071;-65
2023/06/24 03:22:35;;;;;;;9.70;6.45;;;19.90;54.80;;;;;;4899099;29;20067;-65
2023/06/24 03:25:02;;;;;;;7.00;5.57;;;19.90;54.90;;;;;;4902404;29;20081;-64
2023/06/24 03:27:31;;;;;;;7.80;5.63;;;19.90;54.90;;;;;;4897096;29;20408;-65
2023/06/24 03:29:59;;;;;;;6.88;5.75;;;19.90;55.00;;;;;;4900826;29;20117;-65
2023/06/24 03:32:26;;;;;;;7.10;5.85;;;19.90;55.00;;;;;;4900126;29;20056;-65
2023/06/24 03:34:54;;;;;;;7.88;6.32;;;19.90;55.10;;;;;;4900549;29;20534;-65
2023/06/24 03:37:21;;;;;;;7.40;5.90;;;19.80;55.00;;;;;;4898786;29;20416;-65
2023/06/24 03:39:48;;;;;;;6.90;6.00;;;19.80;55.20;;;;;;4900303;29;20056;-65
2023/06/24 03:42:16;;;;;;;7.28;5.78;;;19.80;55.20;;;;;;4898893;29;20052;-65
2023/06/24 03:44:43;;;;;;;13.48;6.32;;;19.80;55.30;;;;;;4898663;29;20059;-65
2023/06/24 03:47:11;;;;;;;17.02;9.63;;;19.80;55.30;;;;;;4903632;29;20056;-65
2023/06/24 03:49:38;;;;;;;10.55;7.43;;;19.80;55.40;;;;;;4900124;29;20060;-65
2023/06/24 03:52:08;;;;;;;11.65;8.30;;;19.80;55.50;;;;;;4902121;29;20064;-65
2023/06/24 03:54:36;;;;;;;9.38;7.15;;;19.80;55.50;;;;;;4900731;29;20063;-65
2023/06/24 03:57:03;;;;;;;9.93;6.63;;;19.80;55.50;;;;;;4896807;29;20060;-65
2023/06/24 03:59:30;;;;;;;7.30;5.97;;;19.80;55.60;;;;;;4901213;29;20565;-65
2023/06/24 04:01:58;;;;;;;10.10;6.25;;;19.80;55.60;;;;;;4900056;29;20057;-65
2023/06/24 04:04:26;;;;;;;6.93;6.20;;;19.80;55.60;;;;;;4896161;29;20059;-65
2023/06/24 04:06:54;;;;;;;6.53;5.65;;;19.70;55.70;;;;;;4897731;29;20075;-65
2023/06/24 04:09:22;;;;;;;9.85;6.40;;;19.80;55.80;;;;;;4897940;29;20056;-65
2023/06/24 04:11:49;;;;;;;9.93;6.60;;;19.80;55.80;;;;;;4902956;29;20512;-65
2023/06/24 04:14:16;;;;;;;8.07;5.90;;;19.80;55.90;;;;;;4900016;29;20064;-65
2023/06/24 04:16:44;;;;;;;8.70;6.53;;;19.70;55.90;;;;;;4887424;29;20056;-65
2023/06/24 04:19:11;;;;;;;8.50;6.57;;;19.70;55.90;;;;;;4897411;29;20527;-64
2023/06/24 04:21:39;;;;;;;7.50;5.85;;;19.80;55.90;;;;;;4901237;29;20067;-65
2023/06/24 04:24:07;;;;;;;9.60;5.90;;;19.70;55.90;;;;;;4897854;29;20059;-65
2023/06/24 04:26:34;;;;;;;8.80;6.10;;;19.80;56.00;;;;;;4890040;29;20067;-65
2023/06/24 04:29:02;;;;;;;7.90;6.43;;;19.70;55.90;;;;;;4901524;29;20060;-65
2023/06/24 04:31:29;;;;;;;7.68;5.75;;;19.80;56.00;;;;;;4900157;29;20389;-65
2023/06/24 04:33:57;;;;;;;8.30;6.20;;;19.70;56.00;;;;;;4900042;29;20048;-60
2023/06/24 04:36:24;;;;;;;7.93;6.50;;;19.80;56.10;;;;;;4897593;29;20056;-62
2023/06/24 04:38:53;;;;;;;10.73;6.10;;;19.80;56.10;;;;;;4900418;29;20064;-62
2023/06/24 04:41:21;;;;;;;7.80;5.60;;;19.80;56.20;;;;;;4898985;29;20055;-61
2023/06/24 04:43:48;;;;;;;8.65;6.70;;;19.70;56.10;;;;;;4900077;29;20059;-61
2023/06/24 04:46:16;;;;;;;8.98;6.63;;;19.80;56.20;;;;;;4899323;29;20057;-62
2023/06/24 04:48:44;;;;;;;9.80;7.00;;;19.70;56.20;;;;;;4901353;29;20519;-60
2023/06/24 04:51:11;;;;;;;7.20;6.15;;;19.70;56.20;;;;;;4898239;29;20052;-60
2023/06/24 04:53:39;;;;;;;7.88;6.35;;;19.80;56.30;;;;;;4899806;29;20051;-62
2023/06/24 04:56:08;;;;;;;7.65;5.93;;;19.80;56.50;;;;;;4898718;29;20053;-62
2023/06/24 04:58:36;;;;;;;10.73;6.53;;;19.80;56.40;;;;;;4901005;29;20056;-61
2023/06/24 05:01:04;;;;;;;8.70;6.53;;;19.80;56.50;;;;;;4898083;29;20056;-63
2023/06/24 05:03:31;;;;;;;11.38;7.20;;;19.80;56.60;;;;;;4902014;29;20068;-61
2023/06/24 05:05:59;;;;;;;9.43;6.50;;;19.80;56.60;;;;;;4901961;29;20115;-61
2023/06/24 05:08:26;;;;;;;8.25;6.35;;;19.80;56.70;;;;;;4896996;29;20079;-62
2023/06/24 05:10:54;;;;;;;8.95;6.15;;;19.80;56.80;;;;;;4900478;29;20052;-64
2023/06/24 05:13:24;;;;;;;7.93;6.43;;;19.90;56.90;;;;;;4899990;29;20073;-61
2023/06/24 05:15:51;;;;;;;8.35;5.88;;;19.90;57.00;;;;;;4899756;29;20056;-62
2023/06/24 05:18:19;;;;;;;10.32;6.20;;;19.90;57.00;;;;;;4899499;29;20056;-61
2023/06/24 05:20:47;;;;;;;10.05;6.30;;;19.90;57.00;;;;;;4898219;29;20056;-61
2023/06/24 05:23:14;;;;;;;7.97;6.38;;;20.00;57.10;;;;;;4901780;29;20060;-61
2023/06/24 05:25:42;;;;;;;9.90;6.20;;;20.00;57.10;;;;;;4900525;29;20056;-65
2023/06/24 05:28:09;;;;;;;6.78;5.65;;;20.00;57.20;;;;;;4899371;29;20056;-64
2023/06/24 05:30:38;;;;;;;8.75;6.63;;;20.00;57.30;;;;;;4900340;29;20430;-62
2023/06/24 05:33:06;;;;;;;8.55;6.55;;;20.00;57.30;;;;;;4901383;29;20417;-61
2023/06/24 05:35:34;;;;;;;8.02;5.90;;;20.00;57.30;;;;;;4898651;29;20067;-64
2023/06/24 05:38:01;;;;;;;7.57;6.10;;;20.10;57.50;;;;;;4901224;29;20052;-62
2023/06/24 05:40:29;;;;;;;7.97;6.07;;;20.10;57.50;;;;;;4901772;29;20052;-62
2023/06/24 05:42:56;;;;;;;7.93;5.53;;;20.10;57.60;;;;;;4901599;29;20099;-62
2023/06/24 05:45:24;;;;;;;9.25;6.32;;;20.20;57.70;;;;;;4901945;29;20055;-61
2023/06/24 05:47:53;;;;;;;6.95;5.90;;;20.20;57.70;;;;;;4900287;29;20056;-62
2023/06/24 05:50:21;;;;;;;9.65;7.07;;;20.30;57.90;;;;;;4900152;29;20060;-61
2023/06/24 05:52:49;;;;;;;7.03;5.95;;;20.30;57.90;;;;;;4902429;29;20056;-61
2023/06/24 05:55:16;;;;;;;9.20;6.25;;;20.30;57.90;;;;;;4901555;29;20075;-63
2023/06/24 05:57:44;;;;;;;8.10;6.55;;;20.40;57.90;;;;;;4900112;29;20090;-63
2023/06/24 06:00:12;;;;;;;8.93;6.35;;;20.40;57.90;;;;;;4901728;29;20056;-63
2023/06/24 06:02:40;;;;;;;11.98;6.78;;;20.40;57.90;;;;;;4900976;29;20089;-63
2023/06/24 06:05:09;;;;;;;11.30;7.90;;;20.50;58.00;;;;;;4901092;29;20051;-65
2023/06/24 06:07:38;;;;;;;9.45;6.57;;;20.50;58.10;;;;;;4904381;29;20059;-62
2023/06/24 06:10:06;;;;;;;10.55;7.10;;;20.60;58.10;;;;;;4903669;29;20063;-63
2023/06/24 06:12:33;;;;;;;9.52;7.53;;;20.60;58.20;;;;;;4896642;29;20055;-62
2023/06/24 06:15:00;;;;;;;9.18;7.75;;;20.60;58.20;;;;;;4902552;29;20071;-62
2023/06/24 06:17:28;;;;;;;9.88;7.18;;;20.70;58.30;;;;;;4902350;29;20071;-62
2023/06/24 06:19:55;;;;;;;10.15;6.95;;;20.80;58.30;;;;;;4903441;29;20492;-62
2023/06/24 06:22:24;;;;;;;10.35;8.13;;;20.80;58.30;;;;;;4903506;29;20493;-62
2023/06/24 06:24:51;;;;;;;13.80;8.13;;;20.90;58.70;;;;;;4898315;29;20060;-64
2023/06/24 06:27:18;;;;;;;13.60;9.93;;;20.90;58.80;;;;;;4898825;29;20051;-63
2023/06/24 06:29:45;;;;;;;11.63;7.95;;;21.00;58.90;;;;;;4902297;29;20385;-63
2023/06/24 06:32:12;;;;;;;10.45;7.32;;;21.00;58.80;;;;;;4900643;29;20048;-63
2023/06/24 06:34:40;;;;;;;10.05;7.65;;;21.00;58.80;;;;;;4901158;29;20052;-63
2023/06/24 06:37:07;;;;;;;10.38;7.45;;;21.10;58.80;;;;;;4900367;29;20063;-62
2023/06/24 06:39:35;;;;;;;11.38;8.25;;;21.20;58.90;;;;;;4900572;29;20060;-62
2023/06/24 06:42:03;;;;;;;10.60;8.02;;;21.30;58.90;;;;;;4901400;29;20503;-62
2023/06/24 06:44:30;;;;;;;12.32;8.43;;;21.30;58.80;;;;;;4902863;29;20052;-62
2023/06/24 06:46:57;;;;;;;8.15;6.93;;;21.30;58.80;;;;;;4897391;29;20081;-62
2023/06/24 06:49:25;;;;;;;11.75;7.68;;;21.40;59.00;;;;;;4902834;29;20064;-63
2023/06/24 06:51:54;;;;;;;11.38;7.68;;;21.50;59.10;;;;;;4901175;29;20052;-62
2023/06/24 06:54:22;;;;;;;9.68;6.97;;;21.50;59.20;;;;;;4903000;29;20354;-62
2023/06/24 06:56:50;;;;;;;9.27;7.53;;;21.60;59.10;;;;;;4897080;29;20059;-65
2023/06/24 06:59:17;;;;;;;11.60;8.43;;;21.70;59.10;;;;;;4899403;29;20064;-63
2023/06/24 07:01:45;;;;;;;12.75;7.88;;;21.80;59.00;;;;;;4900463;29;20063;-64
2023/06/24 07:04:12;;;;;;;13.00;8.23;;;21.80;58.90;;;;;;4900596;29;20428;-64
2023/06/24 07:06:39;;;;;;;12.93;7.80;;;21.90;58.80;;;;;;4899272;29;20416;-62
2023/06/24 07:09:07;;;;;;;10.23;7.60;;;22.00;58.70;;;;;;4896047;29;20508;-63
2023/06/24 07:11:34;;;;;;;15.05;9.55;;;22.00;58.70;;;;;;4900134;29;20063;-61
2023/06/24 07:14:04;;;;;;;14.90;10.98;;;22.10;58.40;;;;;;4903368;29;20055;-60
2023/06/24 07:16:31;;;;;;;18.80;11.57;;;22.10;57.80;;;;;;4902675;29;20056;-60
2023/06/24 07:18:58;;;;;;;15.20;9.77;;;22.20;57.70;;;;;;4901855;29;20428;-59
2023/06/24 07:21:26;;;;;;;13.18;8.95;;;22.30;57.40;;;;;;4899119;29;20060;-60
2023/06/24 07:23:53;;;;;;;18.92;12.35;;;22.40;57.20;;;;;;4900144;29;20056;-63
2023/06/24 07:26:22;;;;;;;19.98;11.38;;;22.40;56.50;;;;;;4899621;29;20067;-62
2023/06/24 07:28:49;;;;;;;16.05;10.45;;;22.50;56.40;;;;;;4903650;29;20052;-59
2023/06/24 07:31:17;;;;;;;20.67;11.07;;;22.50;56.60;;;;;;4900065;29;20044;-59
2023/06/24 07:33:45;;;;;;;15.00;11.48;;;22.60;56.60;;;;;;4898721;29;20071;-67
2023/06/24 07:36:13;;;;;;;16.02;11.57;;;22.70;56.40;;;;;;4894787;29;20488;-66
2023/06/24 07:38:40;;;;;;;20.05;12.55;;;22.70;56.10;;;;;;4902519;29;20506;-61
2023/06/24 07:41:07;;;;;;;18.92;12.23;;;22.80;55.80;;;;;;4902984;29;20064;-65
2023/06/24 07:43:35;;;;;;;21.50;12.65;;;22.90;55.70;;;;;;4898267;29;20086;-64
2023/06/24 07:46:03;;;;;;;23.13;12.88;;;22.90;55.70;;;;;;4899817;29;20060;-65
2023/06/24 07:48:31;;;;;;;18.85;13.25;;;23.00;55.40;;;;;;4901234;29;20511;-65
2023/06/24 07:50:59;;;;;;;14.52;10.85;;;23.10;55.40;;;;;;4894571;29;20059;-61
2023/06/24 07:53:26;;;;;;;22.23;13.88;;;23.10;55.80;;;;;;4898821;29;20162;-59
2023/06/24 07:55:53;;;;;;;19.60;13.15;;;23.10;55.50;;;;;;4900091;29;20067;-62
2023/06/24 07:58:21;;;;;;;19.95;12.77;;;23.20;55.50;;;;;;4897954;29;20071;-60
2023/06/24 08:00:48;;;;;;;17.30;11.13;;;23.30;55.10;;;;;;4890578;29;20518;-60
2023/06/24 08:03:15;;;;;;;20.17;12.65;;;23.40;54.90;;;;;;4898478;29;20052;-61
2023/06/24 08:05:44;;;;;;;18.75;11.68;;;23.40;55.00;;;;;;4900243;29;20060;-64
2023/06/24 08:08:11;;;;;;;18.02;11.60;;;23.50;55.10;;;;;;4900486;29;20513;-63
2023/06/24 08:10:39;;;;;;;23.27;12.40;;;23.50;55.00;;;;;;4899548;29;20067;-65
2023/06/24 08:13:06;;;;;;;15.65;10.13;;;23.60;55.20;;;;;;4897397;29;20515;-63
2023/06/24 08:15:33;;;;;;;18.05;11.60;;;23.60;55.10;;;;;;4895638;29;20071;-63
2023/06/24 08:18:01;;;;;;;19.50;10.52;;;23.70;54.40;;;;;;4900324;29;20048;-63
2023/06/24 08:20:28;;;;;;;17.55;11.30;;;23.70;54.40;;;;;;4900602;29;20424;-58
2023/06/24 08:22:57;;;;;;;19.27;10.35;;;23.80;54.30;;;;;;4898751;29;20052;-62
2023/06/24 08:25:25;;;;;;;20.05;11.07;;;23.90;54.00;;;;;;4898515;29;20055;-62
2023/06/24 08:27:52;;;;;;;20.73;12.05;;;23.90;53.80;;;;;;4899333;29;20056;-65
2023/06/24 08:30:20;;;;;;;16.45;11.35;;;24.00;53.40;;;;;;4898145;29;20094;-63
2023/06/24 08:32:48;;;;;;;16.45;10.10;;;24.00;53.40;;;;;;4899862;29;20918;-63
2023/06/24 08:35:16;;;;;;;15.15;10.73;;;24.10;53.10;;;;;;4900989;29;20058;-65
2023/06/24 08:37:44;;;;;;;14.13;9.10;;;24.10;52.70;;;;;;4903689;29;20062;-64
2023/06/24 08:40:14;;;;;;;17.60;12.10;;;24.10;52.70;;;;;;4902534;29;20609;-60
2023/06/24 08:42:41;;;;;;;17.52;11.30;;;24.20;52.10;;;;;;4901443;29;20404;-63
2023/06/24 08:45:09;;;;;;;17.13;11.55;;;24.20;52.20;;;;;;4902807;29;20111;-64
2023/06/24 08:47:38;;;;;;;12.20;9.07;;;24.30;52.10;;;;;;4902887;29;20527;-64
2023/06/24 08:50:09;;;;;;;15.38;8.88;;;24.30;52.60;;;;;;4903380;29;20117;-60
2023/06/24 08:52:39;;;;;;;13.82;8.65;;;24.40;51.70;;;;;;4904239;29;20166;-64
2023/06/24 08:55:11;;;;;;;11.63;7.32;;;24.40;51.70;;;;;;4901351;29;20063;-65
2023/06/24 08:57:40;;;;;;;13.40;9.07;;;24.50;52.00;;;;;;4903854;29;20499;-65
2023/06/24 09:00:10;;;;;;;13.90;8.73;;;24.50;51.80;;;;;;4900522;29;20067;-65
2023/06/24 09:02:38;;;;;;;13.38;7.85;;;24.60;52.40;;;;;;4904269;29;20056;-63
2023/06/24 09:05:06;;;;;;;11.73;7.45;;;24.70;51.90;;;;;;4902439;29;20083;-63
2023/06/24 09:07:33;;;;;;;12.43;8.50;;;24.70;52.00;;;;;;4902958;29;20413;-63
2023/06/24 09:10:01;;;;;;;14.23;9.85;;;24.80;51.80;;;;;;4905032;29;20063;-65
2023/06/24 09:12:29;;;;;;;12.35;8.35;;;24.90;51.90;;;;;;4899836;29;20489;-64
2023/06/24 09:14:57;;;;;;;14.23;8.05;;;25.00;51.70;;;;;;4902074;29;20055;-64
2023/06/24 09:17:24;;;;;;;11.40;7.95;;;25.00;52.10;;;;;;4902100;29;20416;-57
2023/06/24 09:19:52;;;;;;;16.08;8.57;;;25.10;51.60;;;;;;4904780;29;20397;-64
2023/06/24 09:22:20;;;;;;;14.98;9.27;;;25.20;51.70;;;;;;4904767;29;20052;-64
2023/06/24 09:24:48;;;;;;;12.45;7.65;;;25.20;50.60;;;;;;4898412;29;20051;-61
2023/06/24 09:27:19;;;;;;;13.27;7.53;;;25.30;50.80;;;;;;4905104;29;20055;-64
2023/06/24 09:29:47;;;;;;;13.93;9.45;;;25.40;51.00;;;;;;4899319;29;20060;-63
2023/06/24 09:32:15;;;;;;;18.02;9.57;;;25.40;50.50;;;;;;4906618;29;20056;-63
2023/06/24 09:34:44;;;;;;;14.68;10.07;;;25.50;50.10;;;;;;4904305;29;20416;-64
2023/06/24 09:37:13;;;;;;;12.98;9.02;;;25.50;49.60;;;;;;4904721;29;20060;-64
2023/06/24 09:39:41;;;;;;;14.00;9.18;;;25.60;50.00;;;;;;4903776;29;20520;-63
2023/06/24 09:42:11;;;;;;;15.63;9.85;;;25.60;50.10;;;;;;4903485;29;20075;-64
2023/06/24 09:44:38;;;;;;;11.18;7.28;;;25.60;49.30;;;;;;4897723;29;20060;-64
2023/06/24 09:47:05;;;;;;;13.75;7.65;;;25.60;49.70;;;;;;4902660;29;20063;-64
2023/06/24 09:49:34;;;;;;;11.98;8.38;;;25.60;50.00;;;;;;4898963;29;20516;-65
2023/06/24 09:52:03;;;;;;;11.32;7.20;;;25.70;49.50;;;;;;4899224;29;20048;-65
2023/06/24 09:54:31;;;;;;;7.43;5.80;;;25.70;49.10;;;;;;4901899;29;20062;-63
2023/06/24 09:57:02;;;;;;;9.93;6.78;;;25.70;49.50;;;;;;4901375;29;20444;-64
2023/06/24 09:59:33;;;;;;;8.35;6.25;;;25.80;49.80;;;;;;4903882;29;20056;-61
2023/06/24 10:02:01;;;;;;;9.43;6.65;;;25.80;49.90;;;;;;4899151;29;20063;-60
2023/06/24 10:04:29;;;;;;;11.52;6.15;;;25.90;49.60;;;;;;4902427;29;20061;-65
2023/06/24 10:06:59;;;;;;;8.18;5.93;;;25.90;49.20;;;;;;4900103;29;20056;-61
2023/06/24 10:09:26;;;;;;;11.13;7.05;;;26.00;49.20;;;;;;4901962;29;20060;-62
2023/06/24 10:11:53;;;;;;;10.65;7.78;;;26.00;49.10;;;;;;4903774;29;20074;-62
2023/06/24 10:14:20;;;;;;;12.15;6.18;;;26.00;48.60;;;;;;4898780;29;20165;-62
2023/06/24 10:16:47;;;;;;;13.15;8.63;;;26.00;48.50;;;;;;4901083;29;20483;-65
2023/06/24 10:19:21;;;;;;;9.70;6.47;;;26.10;48.00;;;;;;4900378;29;20059;-62
2023/06/24 10:21:51;;;;;;;;;;;26.10;48.30;;;;;;4900536;29;20052;-62
2023/06/24 10:24:35;;;;;;;8.32;6.53;;;26.10;48.80;;;;;;4900392;29;20311;-59
2023/06/24 10:27:04;;;;;;;8.15;6.35;;;26.10;48.30;;;;;;4897659;29;20055;-64
2023/06/24 10:29:35;;;;;;;10.00;6.18;;;26.10;48.20;;;;;;4904128;29;20067;-63
2023/06/24 10:32:04;;;;;;;8.23;6.10;;;26.20;46.80;;;;;;4901060;29;20063;-61
2023/06/24 10:34:43;;;;;;;8.77;6.20;;;26.20;46.80;;;;;;4901509;29;20055;-65
2023/06/24 10:37:13;;;;;;;10.00;6.07;;;26.20;46.60;;;;;;4903098;29;20063;-63
2023/06/24 10:39:49;;;;;;;6.85;5.32;;;26.30;46.70;;;;;;4893472;29;20063;-63
2023/06/24 10:42:38;;;;;;;12.63;6.65;;;26.30;46.80;;;;;;4898389;29;20056;-63
2023/06/24 10:45:17;;;;;;;7.22;5.50;;;26.40;46.70;;;;;;4897672;29;20416;-62
2023/06/24 10:47:46;;;;;;;7.13;5.28;;;26.40;46.90;;;;;;4900183;29;20397;-64
2023/06/24 10:50:15;;;;;;;13.25;5.43;;;26.50;46.90;;;;;;4893908;29;20064;-61
2023/06/24 10:52:43;;;;;;;9.07;5.78;;;26.50;47.10;;;;;;4898641;29;20060;-59
2023/06/24 10:55:15;;;;;;;8.18;5.18;;;26.60;46.60;;;;;;4900916;29;20071;-59
2023/06/24 10:57:43;;;;;;;6.13;5.10;;;26.60;46.40;;;;;;4900773;29;20496;-57
2023/06/24 11:00:11;;;;;;;7.10;5.03;;;26.70;46.40;;;;;;4900896;29;20056;-60
2023/06/24 11:02:38;;;;;;;6.85;4.82;;;26.70;46.50;;;;;;4877924;29;20060;-60
2023/06/24 11:05:06;;;;;;;7.38;4.97;;;26.70;46.70;;;;;;4883105;29;20057;-59
2023/06/24 11:07:35;;;;;;;8.25;5.35;;;26.70;46.50;;;;;;4884178;29;20065;-58
2023/06/24 11:10:05;;;;;;;6.88;4.80;;;26.70;46.30;;;;;;4882915;29;20064;-59
2023/06/24 11:12:34;;;;;;;7.13;4.50;;;26.80;46.20;;;;;;4885199;29;20417;-59
2023/06/24 11:15:04;;;;;;;7.93;5.25;;;26.80;46.20;;;;;;4883931;29;20052;-59
2023/06/24 11:17:31;;;;;;;5.78;4.80;;;26.80;45.30;;;;;;4885514;29;20064;-57
2023/06/24 11:19:59;;;;;;;8.43;5.10;;;26.80;45.60;;;;;;4882875;29;20567;-60
2023/06/24 11:22:27;;;;;;;7.18;4.95;;;26.80;45.00;;;;;;4881070;29;20390;-62
2023/06/24 11:24:56;;;;;;;5.95;5.00;;;26.80;44.70;;;;;;4884986;29;20417;-63
2023/06/24 11:27:27;;;;;;;5.82;4.63;;;26.80;44.70;;;;;;4881777;29;20057;-59
2023/06/24 11:29:58;;;;;;;7.47;5.00;;;26.80;44.70;;;;;;4884780;29;20049;-59
2023/06/24 11:32:25;;;;;;;6.00;4.78;;;26.80;44.90;;;;;;4884867;29;20057;-61
2023/06/24 11:34:52;;;;;;;12.90;5.05;;;26.80;44.60;;;;;;4884316;29;20502;-64
2023/06/24 11:37:20;;;;;;;7.88;5.47;;;26.80;44.30;;;;;;4882803;29;20057;-62
2023/06/24 11:40:03;;;;;;;6.78;4.80;;;26.90;44.40;;;;;;4884014;29;20083;-64
2023/06/24 11:42:30;;;;;;;7.50;4.38;;;26.90;44.50;;;;;;4867079;29;20060;-63
2023/06/24 11:45:03;;;;;;;6.40;4.72;;;26.90;44.90;;;;;;4887210;29;20056;-62
2023/06/24 11:47:33;;;;;;;4.50;4.00;;;26.90;45.00;;;;;;4884189;29;20060;-62
2023/06/24 11:50:02;;;;;;;5.47;4.30;;;27.00;45.60;;;;;;4883902;29;20063;-63
2023/06/24 11:52:43;;;;;;;6.63;5.05;;;27.10;45.60;;;;;;4884206;29;20529;-62
2023/06/24 11:55:16;;;;;;;7.18;4.70;;;27.10;45.50;;;;;;4886432;29;20056;-61
2023/06/24 11:57:55;;;;;;;5.20;4.40;;;27.20;45.40;;;;;;4882912;29;20052;-62
2023/06/24 12:00:25;;;;;;;5.45;4.28;;;27.20;46.20;;;;;;4884522;29;20490;-59
2023/06/24 12:02:56;;;;;;;6.63;4.65;;;27.30;45.90;;;;;;4904069;29;20064;-59
2023/06/24 12:05:26;;;;;;;6.10;4.25;;;27.30;45.10;;;;;;4901234;29;20059;-60
2023/06/24 12:07:56;;;;;;;7.10;4.30;;;27.40;45.30;;;;;;4904374;29;20063;-57
2023/06/24 12:10:23;;;;;;;7.05;4.95;;;27.40;45.00;;;;;;4901471;29;20055;-59
2023/06/24 12:12:50;;;;;;;13.60;5.00;;;27.50;44.70;;;;;;4902511;29;20066;-59
2023/06/24 12:15:18;;;;;;;6.95;5.20;;;27.50;44.70;;;;;;4901514;29;20049;-60
2023/06/24 12:17:46;;;;;;;5.88;4.35;;;27.60;44.50;;;;;;4903291;29;20496;-60
2023/06/24 12:20:15;;;;;;;9.38;4.70;;;27.70;43.70;;;;;;4902513;29;20048;-51
2023/06/24 12:22:42;;;;;;;5.18;4.55;;;27.80;43.40;;;;;;4904115;29;20052;-57
2023/06/24 12:25:10;;;;;;;7.15;4.53;;;27.90;43.00;;;;;;4903228;29;20420;-59
2023/06/24 12:27:39;;;;;;;7.78;4.97;;;27.90;43.10;;;;;;4903302;29;20060;-58
2023/06/24 12:30:08;;;;;;;7.18;4.65;;;28.00;42.30;;;;;;4904809;29;20052;-61
2023/06/24 12:32:35;;;;;;;7.57;4.38;;;28.00;42.20;;;;;;4899796;29;20063;-59
2023/06/24 12:35:05;;;;;;;6.28;4.43;;;28.10;41.90;;;;;;4894685;29;20052;-59
2023/06/24 12:37:32;;;;;;;5.80;4.53;;;28.20;41.60;;;;;;4901643;29;20056;-60
2023/06/24 12:40:00;;;;;;;5.93;4.30;;;28.20;42.10;;;;;;4903921;29;20068;-60
2023/06/24 12:42:28;;;;;;;6.85;4.47;;;28.30;41.50;;;;;;4900524;29;20425;-59
2023/06/24 12:44:55;;;;;;;5.93;4.50;;;28.30;41.40;;;;;;4905063;29;20056;-59
2023/06/24 12:47:22;;;;;;;6.80;4.13;;;28.30;41.30;;;;;;4901036;29;20428;-59
2023/06/24 12:49:50;;;;;;;5.63;5.03;;;28.30;41.70;;;;;;4898927;29;20090;-59
2023/06/24 12:52:19;;;;;;;6.00;4.70;;;28.30;40.10;;;;;;4903287;29;20052;-58